Owatonna, MN

5:44 PM CDT on March 22, 2017 (GMT -0500)
Owatonna Degner Regional

Weather History for KOWA - February, 2012

Change the Weather History Date:

Tuesday, February 14, 2012

  Actual Average Record
Temperature  
Mean Temperature 28 °F -  
Max Temperature 33 °F 29 °F 45 °F (1964)
Min Temperature 24 °F 10 °F -16 °F (1970)
Degree Days  
Heating Degree Days 36    
Moisture  
Dew Point 26 °F    
Average Humidity 90    
Maximum Humidity 100    
Minimum Humidity 75    
Precipitation  
Precipitation 0.00 in - - ()
Sea Level Pressure  
Sea Level Pressure 29.72 in    
Wind  
Wind Speed 6 mph (South)    
Max Wind Speed 13 mph    
Max Gust Speed 17 mph    
Visibility 6 miles    
Events      
Averages and records for this station are not official NWS values.
T = Trace of Precipitation, MM = Missing Value Source: NWS Daily Summary

Daily Weather History Graph

Daily Weather History Graph

Search for Another Location

Airport or City:

Trip Planner

Search our weather history database for the weather conditions in past years. The results will help you decide how hot, cold, wet, or windy it might be!

Date:

Astronomy

Feb. 14, 2012 Rise Set
Actual Time 7:14 AM CST 5:40 PM CST
Civil Twilight 6:44 AM CST 6:10 PM CST
Nautical Twilight 6:10 AM CST 6:44 PM CST
Astronomical Twilight 5:37 AM CST 7:17 PM CST
Moon 1:05 AM CST (2/14) 10:40 AM CST (2/14)
Length of Visible Light 11h 25m
Length of Day
10h 25m
Waning Gibbous, 50% of the Moon is Illuminated
Feb 14
Waning Gibbous
Feb 21
New
Feb 29
First Quarter
Mar 8
Full
Mar 14
Last Quarter

Hourly Weather History & Observations

Time (CST) Temp. Windchill Dew Point Humidity Pressure Visibility Wind Dir Wind Speed Gust Speed Precip Events Conditions
12:13 AM 26.6 °F 22.6 °F 26.6 °F 100% 29.71 in 5.0 mi South 3.5 mph - N/A   Scattered Clouds
12:34 AM 26.6 °F 22.6 °F 26.6 °F 100% 29.70 in 5.0 mi SSW 3.5 mph - N/A   Overcast
12:54 AM 26.6 °F 22.6 °F 26.6 °F 100% 29.70 in 5.0 mi SW 3.5 mph - N/A   Overcast
1:14 AM 26.6 °F 22.6 °F 26.6 °F 100% 29.70 in 5.0 mi SW 3.5 mph - N/A   Overcast
1:34 AM 26.6 °F 22.6 °F 26.6 °F 100% 29.70 in 5.0 mi WSW 3.5 mph - N/A   Overcast
2:14 AM 26.6 °F 21.2 °F 26.6 °F 100% 29.71 in 3.0 mi WSW 4.6 mph - N/A   Overcast
2:34 AM 26.6 °F - 26.6 °F 100% 29.71 in 2.5 mi Calm Calm - N/A   Overcast
2:54 AM 26.6 °F - 26.6 °F 100% 29.71 in 2.5 mi Calm Calm - N/A   Overcast
3:14 AM 26.6 °F 19.1 °F 26.6 °F 100% 29.71 in 3.0 mi West 6.9 mph - N/A   Overcast
3:34 AM 26.6 °F 22.6 °F 26.6 °F 100% 29.71 in 4.0 mi WSW 3.5 mph - N/A   Overcast
3:54 AM 26.6 °F - 26.6 °F 100% 29.70 in 4.0 mi Calm Calm - N/A   Overcast
4:14 AM 26.6 °F 20.0 °F 24.8 °F 93% 29.71 in 7.0 mi WSW 5.8 mph - N/A   Overcast
4:34 AM 26.6 °F 19.1 °F 24.8 °F 93% 29.71 in 5.0 mi SW 6.9 mph - N/A   Overcast
4:54 AM 24.8 °F 16.1 °F 24.8 °F 100% 29.71 in 5.0 mi WSW 8.1 mph - N/A   Overcast
5:14 AM 24.8 °F 16.9 °F 24.8 °F 100% 29.71 in 4.0 mi SW 6.9 mph - N/A   Overcast
5:34 AM 24.8 °F 19.1 °F 24.8 °F 100% 29.72 in 4.0 mi SW 4.6 mph - N/A   Overcast
5:54 AM 24.8 °F 17.9 °F 23.0 °F 93% 29.72 in 5.0 mi SW 5.8 mph - N/A   Overcast
6:13 AM 24.8 °F - 24.8 °F 100% 29.71 in 5.0 mi Calm Calm - N/A   Overcast
6:33 AM 24.8 °F 15.3 °F 24.8 °F 100% 29.73 in 4.0 mi SW 9.2 mph - N/A   Overcast
6:54 AM 24.8 °F 16.9 °F 23.0 °F 93% 29.73 in 5.0 mi SSW 6.9 mph - N/A   Overcast
7:14 AM 24.8 °F 17.9 °F 23.0 °F 93% 29.73 in 7.0 mi SSW 5.8 mph - N/A   Overcast
7:34 AM 24.8 °F 15.3 °F 23.0 °F 93% 29.73 in 7.0 mi SSW 9.2 mph - N/A   Overcast
7:54 AM 24.8 °F 17.9 °F 23.0 °F 93% 29.73 in 7.0 mi SSW 5.8 mph - N/A   Overcast
8:14 AM 24.8 °F 17.9 °F 23.0 °F 93% 29.74 in 7.0 mi SSW 5.8 mph - N/A   Overcast
8:34 AM 24.8 °F 14.6 °F 23.0 °F 93% 29.75 in 7.0 mi SSW 10.4 mph - N/A   Overcast
8:54 AM 26.6 °F 19.1 °F 23.0 °F 86% 29.75 in 10.0 mi South 6.9 mph - N/A   Overcast
9:14 AM 26.6 °F 20.0 °F 23.0 °F 86% 29.74 in 10.0 mi South 5.8 mph - N/A   Overcast
9:34 AM 26.6 °F 19.1 °F 24.8 °F 93% 29.74 in 10.0 mi SSE 6.9 mph - N/A   Overcast
9:54 AM 28.4 °F 20.4 °F 24.8 °F 86% 29.75 in 10.0 mi South 8.1 mph - N/A   Overcast
10:14 AM 28.4 °F 22.2 °F 24.8 °F 86% 29.75 in 10.0 mi South 5.8 mph - N/A   Overcast
10:34 AM 28.4 °F 20.4 °F 24.8 °F 86% 29.74 in 10.0 mi South 8.1 mph - N/A   Scattered Clouds
10:54 AM 30.2 °F 21.9 °F 26.6 °F 86% 29.75 in 10.0 mi South 9.2 mph - N/A   Scattered Clouds
11:14 AM 30.2 °F 20.8 °F 26.6 °F 86% 29.75 in 10.0 mi South 11.5 mph - N/A   Scattered Clouds
11:34 AM 30.2 °F 21.3 °F 26.6 °F 86% 29.75 in 10.0 mi South 10.4 mph - N/A   Scattered Clouds
11:54 AM 30.2 °F 21.3 °F 26.6 °F 86% 29.74 in 10.0 mi South 10.4 mph - N/A   Clear
12:14 PM 30.2 °F 21.3 °F 26.6 °F 86% 29.74 in 7.0 mi South 10.4 mph - N/A   Clear
12:33 PM 32.0 °F 24.2 °F 26.6 °F 80% 29.73 in 7.0 mi South 9.2 mph - N/A   Clear
12:53 PM 33.8 °F 25.8 °F 26.6 °F 75% 29.72 in 7.0 mi South 10.4 mph - N/A   Scattered Clouds
1:14 PM 33.8 °F 25.3 °F 26.6 °F 75% 29.72 in 7.0 mi South 11.5 mph - N/A   Scattered Clouds
1:34 PM 33.8 °F 27.7 °F 28.4 °F 81% 29.71 in 7.0 mi South 6.9 mph - N/A   Scattered Clouds
1:54 PM 33.8 °F 27.7 °F 28.4 °F 81% 29.71 in 7.0 mi SSE 6.9 mph - N/A   Clear
2:14 PM 33.8 °F 26.4 °F 28.4 °F 81% 29.70 in 7.0 mi SE 9.2 mph - N/A   Scattered Clouds
2:34 PM 33.8 °F 25.8 °F 28.4 °F 81% 29.70 in 5.0 mi SSE 10.4 mph - N/A   Haze
2:54 PM 33.8 °F 27.0 °F 28.4 °F 81% 29.72 in 7.0 mi SSE 8.1 mph - N/A   Scattered Clouds
3:14 PM 33.8 °F 25.3 °F 28.4 °F 81% 29.72 in 5.0 mi SSE 11.5 mph - N/A   Haze
3:34 PM 33.8 °F 25.8 °F 28.4 °F 81% 29.71 in 5.0 mi SSE 10.4 mph - N/A   Haze
3:54 PM 33.8 °F 24.8 °F 28.4 °F 81% 29.71 in 5.0 mi SSE 12.7 mph - N/A   Mostly Cloudy
4:14 PM 33.8 °F 27.0 °F 28.4 °F 81% 29.71 in 5.0 mi SSE 8.1 mph - N/A   Haze
4:34 PM 33.8 °F 26.4 °F 28.4 °F 81% 29.71 in 5.0 mi SSE 9.2 mph - N/A   Mostly Cloudy
4:54 PM 33.8 °F 25.8 °F 28.4 °F 81% 29.72 in 7.0 mi SSE 10.4 mph - N/A   Mostly Cloudy
5:14 PM 33.8 °F 25.3 °F 28.4 °F 81% 29.71 in 7.0 mi SSE 11.5 mph - N/A   Scattered Clouds
5:34 PM 32.0 °F 23.6 °F 28.4 °F 87% 29.72 in 5.0 mi SSE 10.4 mph 17.3 mph N/A   Mostly Cloudy
5:54 PM 32.0 °F 23.0 °F 28.4 °F 87% 29.73 in 7.0 mi SSE 11.5 mph - N/A   Overcast
6:14 PM 33.8 °F 24.8 °F 30.2 °F 87% 29.73 in 7.0 mi SSE 12.7 mph - N/A   Overcast
6:34 PM 33.8 °F 25.8 °F 30.2 °F 87% 29.74 in 7.0 mi SSE 10.4 mph - N/A   Overcast
7:14 PM 33.8 °F 24.3 °F 30.2 °F 87% 29.73 in 7.0 mi SSE 13.8 mph - N/A   Overcast
7:34 PM 33.8 °F 25.3 °F 30.2 °F 87% 29.74 in 7.0 mi South 11.5 mph - N/A   Mostly Cloudy
7:54 PM 33.8 °F 25.8 °F 30.2 °F 87% 29.75 in 7.0 mi South 10.4 mph - N/A   Overcast
8:14 PM 33.8 °F 25.8 °F 30.2 °F 87% 29.75 in 5.0 mi South 10.4 mph - N/A   Overcast
8:34 PM 33.8 °F 25.8 °F 30.2 °F 87% 29.75 in 5.0 mi South 10.4 mph - N/A   Overcast
8:54 PM 35.6 °F 27.1 °F 30.2 °F 81% 29.76 in 7.0 mi South 12.7 mph - N/A   Overcast
9:14 PM 33.8 °F 24.3 °F 30.2 °F 87% 29.77 in 7.0 mi SSW 13.8 mph - N/A   Overcast
9:34 PM 33.8 °F 24.3 °F 30.2 °F 87% 29.77 in 7.0 mi South 13.8 mph - N/A   Overcast
9:54 PM 33.8 °F 24.8 °F 30.2 °F 87% 29.78 in 7.0 mi SSW 12.7 mph - N/A   Overcast
10:14 PM 30.2 °F 21.9 °F 28.4 °F 93% 29.78 in 7.0 mi SSW 9.2 mph - N/A   Scattered Clouds
10:34 PM 30.2 °F 22.6 °F 26.6 °F 86% 29.79 in 7.0 mi SSW 8.1 mph - N/A   Clear
10:54 PM 28.4 °F 19.7 °F 26.6 °F 93% 29.80 in 5.0 mi SSW 9.2 mph - N/A   Clear
11:14 PM 28.4 °F 20.4 °F 26.6 °F 93% 29.80 in 5.0 mi SSW 8.1 mph - N/A   Clear
11:34 PM 28.4 °F 19.1 °F 26.6 °F 93% 29.80 in 5.0 mi South 10.4 mph - N/A   Clear
11:54 PM 28.4 °F 19.1 °F 26.6 °F 93% 29.80 in 7.0 mi South 10.4 mph - N/A   Clear